Terminal Aerodrome Forecast
Issued by NWS

Home | Current Version | Previous Version | Text Only | Print | Product List | Glossary On
Versions: 1 2 3 4 5 6 7 8 9 10 11 12 13 14 15 16 17
000
FTUS45 KTFX 301726
TAFGTF
TAF
KGTF 301726Z 3018/3118 24015KT P6SM FEW120
     FM310100 22007KT P6SM SKC
     FM311500 25012G17KT P6SM FEW150=

USA.gov is the U.S. government's official web portal to all federal, state and local government web resources and services.